Current | Forecast
Updated: 10:30 AM CEST on August 18, 2017
Observed at Asturias, Spain
Temperature 20°C
Humidity 94%
Dew Point 19°C
Wind Variable at 2 km/h
Pressure 1021 hPa (Steady)
Conditions Mostly Cloudy
Visibility 10.0 kilometers
UV 2 out of 16
Clouds (FEW) : 152 m
Mostly Cloudy (BKN) : 731 m
Yesterday's Maximum 24°C
Yesterday's Minimum 16°C approx.
Yesterday's Cooling Degree Days 3 approx.
Sunrise7:30 AM CEST
Sunset9:20 PM CEST
Moon Rise3:43 AM CEST
Moon Set6:52 PM CEST
Moon PhaseMoon Phase
Waning Crescent
Raw METARMETAR LEAS 180830Z VRB01KT 9999 FEW005 BKN024 20/19 Q1021 NOSIG


Monday
. High: 71° F.
Tuesday
. High: 71° F.
Wednesday
. High: 60° F.
Thursday
. High: 62° F.
Friday
. High: 75° F.
Saturday
. High: 73° F.
Sunday
. High: 68° F.
Monday
. High: 82° F.

Click here for Marine Information
Scientific forecaster discussion (NWS)

Units: English | Metric

Find the Weather for any City, State or Zipcode, or Country:

U.S. State List | Severe Weather | Tropical Storms | Ski Conditions
United States | Canada | Central America | South America | Asia | Europe | Australia | Africa | Islands

Weather Underground

© Copyright 2017
The Weather Company, LLC